sensor_id;sensor_type;location;lat;lon;timestamp;temperature;humidity
74364;DHT22;62797;49.740;10.154;2023-04-03T00:01:31;1.00;56.60
74364;DHT22;62797;49.740;10.154;2023-04-03T00:03:57;0.90;57.10
74364;DHT22;62797;49.740;10.154;2023-04-03T00:06:23;0.90;57.10
74364;DHT22;62797;49.740;10.154;2023-04-03T00:08:50;0.90;58.90
74364;DHT22;62797;49.740;10.154;2023-04-03T00:11:17;1.00;58.60
74364;DHT22;62797;49.740;10.154;2023-04-03T00:13:43;1.00;58.20
74364;DHT22;62797;49.740;10.154;2023-04-03T00:16:09;1.10;57.70
74364;DHT22;62797;49.740;10.154;2023-04-03T00:18:36;1.10;58.60
74364;DHT22;62797;49.740;10.154;2023-04-03T00:21:03;1.10;57.80
74364;DHT22;62797;49.740;10.154;2023-04-03T00:23:29;1.20;57.80
74364;DHT22;62797;49.740;10.154;2023-04-03T00:25:55;1.20;57.40
74364;DHT22;62797;49.740;10.154;2023-04-03T00:28:21;1.20;58.00
74364;DHT22;62797;49.740;10.154;2023-04-03T00:30:49;1.20;58.60
74364;DHT22;62797;49.740;10.154;2023-04-03T00:33:15;1.20;58.50
74364;DHT22;62797;49.740;10.154;2023-04-03T00:35:41;1.30;58.60
74364;DHT22;62797;49.740;10.154;2023-04-03T00:38:07;1.30;60.10
74364;DHT22;62797;49.740;10.154;2023-04-03T00:40:36;1.30;59.50
74364;DHT22;62797;49.740;10.154;2023-04-03T00:43:04;1.40;59.00
74364;DHT22;62797;49.740;10.154;2023-04-03T00:45:41;1.40;58.60
74364;DHT22;62797;49.740;10.154;2023-04-03T00:48:11;1.40;58.60
74364;DHT22;62797;49.740;10.154;2023-04-03T00:50:40;1.40;59.10
74364;DHT22;62797;49.740;10.154;2023-04-03T00:53:11;1.30;59.50
74364;DHT22;62797;49.740;10.154;2023-04-03T00:55:38;1.40;58.70
74364;DHT22;62797;49.740;10.154;2023-04-03T00:58:06;1.40;58.70
74364;DHT22;62797;49.740;10.154;2023-04-03T01:00:32;1.40;58.90
74364;DHT22;62797;49.740;10.154;2023-04-03T01:02:59;1.30;61.30
74364;DHT22;62797;49.740;10.154;2023-04-03T01:05:26;1.30;59.10
74364;DHT22;62797;49.740;10.154;2023-04-03T01:07:52;1.30;60.70
74364;DHT22;62797;49.740;10.154;2023-04-03T01:10:19;1.30;60.50
74364;DHT22;62797;49.740;10.154;2023-04-03T01:12:49;1.30;61.20
74364;DHT22;62797;49.740;10.154;2023-04-03T01:15:24;1.30;60.00
74364;DHT22;62797;49.740;10.154;2023-04-03T01:17:56;1.30;58.40
74364;DHT22;62797;49.740;10.154;2023-04-03T01:28:12;1.50;60.20
74364;DHT22;62797;49.740;10.154;2023-04-03T01:33:31;1.50;60.60
74364;DHT22;62797;49.740;10.154;2023-04-03T01:35:57;1.50;60.60
74364;DHT22;62797;49.740;10.154;2023-04-03T01:38:23;1.60;61.20
74364;DHT22;62797;49.740;10.154;2023-04-03T01:40:49;1.60;61.60
74364;DHT22;62797;49.740;10.154;2023-04-03T01:43:14;1.60;61.60
74364;DHT22;62797;49.740;10.154;2023-04-03T01:45:40;1.70;61.50
74364;DHT22;62797;49.740;10.154;2023-04-03T01:48:06;1.70;60.30
74364;DHT22;62797;49.740;10.154;2023-04-03T01:50:32;1.70;59.80
74364;DHT22;62797;49.740;10.154;2023-04-03T01:52:58;1.60;61.20
74364;DHT22;62797;49.740;10.154;2023-04-03T01:55:23;1.60;61.00
74364;DHT22;62797;49.740;10.154;2023-04-03T01:57:49;1.70;61.60
74364;DHT22;62797;49.740;10.154;2023-04-03T02:00:15;1.70;61.60
74364;DHT22;62797;49.740;10.154;2023-04-03T02:02:41;1.60;60.60
74364;DHT22;62797;49.740;10.154;2023-04-03T02:05:07;1.60;60.20
74364;DHT22;62797;49.740;10.154;2023-04-03T02:07:34;1.60;60.80
74364;DHT22;62797;49.740;10.154;2023-04-03T02:09:59;1.60;61.30
74364;DHT22;62797;49.740;10.154;2023-04-03T02:12:25;1.60;59.30
74364;DHT22;62797;49.740;10.154;2023-04-03T02:14:51;1.60;59.40
74364;DHT22;62797;49.740;10.154;2023-04-03T02:17:17;1.60;61.20
74364;DHT22;62797;49.740;10.154;2023-04-03T02:19:43;1.60;61.40
74364;DHT22;62797;49.740;10.154;2023-04-03T02:22:09;1.70;62.60
74364;DHT22;62797;49.740;10.154;2023-04-03T02:24:35;1.70;61.90
74364;DHT22;62797;49.740;10.154;2023-04-03T02:27:00;1.80;63.70
74364;DHT22;62797;49.740;10.154;2023-04-03T02:29:26;1.80;63.10
74364;DHT22;62797;49.740;10.154;2023-04-03T02:31:52;1.90;63.00
74364;DHT22;62797;49.740;10.154;2023-04-03T02:34:19;1.90;62.90
74364;DHT22;62797;49.740;10.154;2023-04-03T02:36:46;1.90;63.30
74364;DHT22;62797;49.740;10.154;2023-04-03T02:39:13;2.00;63.30
74364;DHT22;62797;49.740;10.154;2023-04-03T02:41:39;2.10;61.10
74364;DHT22;62797;49.740;10.154;2023-04-03T02:44:11;2.10;61.20
74364;DHT22;62797;49.740;10.154;2023-04-03T02:46:37;2.20;61.30
74364;DHT22;62797;49.740;10.154;2023-04-03T02:49:03;2.30;61.90
74364;DHT22;62797;49.740;10.154;2023-04-03T02:51:29;2.20;59.40
74364;DHT22;62797;49.740;10.154;2023-04-03T02:53:55;2.20;60.70
74364;DHT22;62797;49.740;10.154;2023-04-03T02:56:27;2.30;60.40
74364;DHT22;62797;49.740;10.154;2023-04-03T02:58:53;2.30;58.90
74364;DHT22;62797;49.740;10.154;2023-04-03T03:01:19;2.30;57.90
74364;DHT22;62797;49.740;10.154;2023-04-03T03:03:45;2.40;61.00
74364;DHT22;62797;49.740;10.154;2023-04-03T03:06:14;2.40;59.40
74364;DHT22;62797;49.740;10.154;2023-04-03T03:08:40;2.40;58.60
74364;DHT22;62797;49.740;10.154;2023-04-03T03:11:07;2.50;59.90
74364;DHT22;62797;49.740;10.154;2023-04-03T03:13:33;2.50;58.00
74364;DHT22;62797;49.740;10.154;2023-04-03T03:15:59;2.60;57.70
74364;DHT22;62797;49.740;10.154;2023-04-03T03:18:24;2.50;59.10
74364;DHT22;62797;49.740;10.154;2023-04-03T03:20:55;2.60;59.70
74364;DHT22;62797;49.740;10.154;2023-04-03T03:23:23;2.60;60.60
74364;DHT22;62797;49.740;10.154;2023-04-03T03:25:49;2.70;59.60
74364;DHT22;62797;49.740;10.154;2023-04-03T03:28:17;2.80;59.90
74364;DHT22;62797;49.740;10.154;2023-04-03T03:30:43;2.70;60.00
74364;DHT22;62797;49.740;10.154;2023-04-03T03:33:08;2.70;60.00
74364;DHT22;62797;49.740;10.154;2023-04-03T03:35:34;2.70;60.90
74364;DHT22;62797;49.740;10.154;2023-04-03T03:38:00;2.80;59.20
74364;DHT22;62797;49.740;10.154;2023-04-03T03:40:28;2.80;59.90
74364;DHT22;62797;49.740;10.154;2023-04-03T03:42:53;2.80;58.20
74364;DHT22;62797;49.740;10.154;2023-04-03T03:45:19;2.80;59.80
74364;DHT22;62797;49.740;10.154;2023-04-03T03:47:45;2.90;59.60
74364;DHT22;62797;49.740;10.154;2023-04-03T03:50:11;2.90;57.90
74364;DHT22;62797;49.740;10.154;2023-04-03T03:52:37;2.90;58.30
74364;DHT22;62797;49.740;10.154;2023-04-03T03:55:04;3.00;58.60
74364;DHT22;62797;49.740;10.154;2023-04-03T03:57:30;3.00;58.40
74364;DHT22;62797;49.740;10.154;2023-04-03T03:59:56;3.00;57.80
74364;DHT22;62797;49.740;10.154;2023-04-03T04:02:22;3.00;57.20
74364;DHT22;62797;49.740;10.154;2023-04-03T04:04:48;3.10;56.70
74364;DHT22;62797;49.740;10.154;2023-04-03T04:07:14;3.20;56.80
74364;DHT22;62797;49.740;10.154;2023-04-03T04:09:40;3.20;58.30
74364;DHT22;62797;49.740;10.154;2023-04-03T04:12:07;3.20;58.30
74364;DHT22;62797;49.740;10.154;2023-04-03T04:14:34;3.20;57.50
74364;DHT22;62797;49.740;10.154;2023-04-03T04:17:00;3.20;57.10
74364;DHT22;62797;49.740;10.154;2023-04-03T04:19:28;3.20;55.80
74364;DHT22;62797;49.740;10.154;2023-04-03T04:21:56;3.20;55.30
74364;DHT22;62797;49.740;10.154;2023-04-03T04:24:22;3.20;55.60
74364;DHT22;62797;49.740;10.154;2023-04-03T04:26:50;3.30;56.10
74364;DHT22;62797;49.740;10.154;2023-04-03T04:29:17;3.30;56.40
74364;DHT22;62797;49.740;10.154;2023-04-03T04:31:45;3.30;56.40
74364;DHT22;62797;49.740;10.154;2023-04-03T04:34:11;3.30;55.80
74364;DHT22;62797;49.740;10.154;2023-04-03T04:36:39;3.30;55.40
74364;DHT22;62797;49.740;10.154;2023-04-03T04:39:05;3.30;55.60
74364;DHT22;62797;49.740;10.154;2023-04-03T04:41:31;3.30;55.40
74364;DHT22;62797;49.740;10.154;2023-04-03T04:43:57;3.30;54.40
74364;DHT22;62797;49.740;10.154;2023-04-03T04:46:24;3.20;55.00
74364;DHT22;62797;49.740;10.154;2023-04-03T04:48:54;3.20;55.00
74364;DHT22;62797;49.740;10.154;2023-04-03T04:51:21;3.20;55.30
74364;DHT22;62797;49.740;10.154;2023-04-03T04:53:47;3.20;55.10
74364;DHT22;62797;49.740;10.154;2023-04-03T04:56:15;3.10;54.60
74364;DHT22;62797;49.740;10.154;2023-04-03T04:58:42;3.10;54.80
74364;DHT22;62797;49.740;10.154;2023-04-03T05:01:11;3.10;54.10
74364;DHT22;62797;49.740;10.154;2023-04-03T05:03:47;3.00;54.40
74364;DHT22;62797;49.740;10.154;2023-04-03T05:06:13;2.90;55.20
74364;DHT22;62797;49.740;10.154;2023-04-03T05:08:39;2.90;55.10
74364;DHT22;62797;49.740;10.154;2023-04-03T05:11:06;2.90;55.20
74364;DHT22;62797;49.740;10.154;2023-04-03T05:13:33;2.80;55.20
74364;DHT22;62797;49.740;10.154;2023-04-03T05:15:58;2.80;55.20
74364;DHT22;62797;49.740;10.154;2023-04-03T05:18:25;2.70;55.10
74364;DHT22;62797;49.740;10.154;2023-04-03T05:20:52;2.70;56.00
74364;DHT22;62797;49.740;10.154;2023-04-03T05:23:19;2.70;56.10
74364;DHT22;62797;49.740;10.154;2023-04-03T05:25:46;2.70;56.00
74364;DHT22;62797;49.740;10.154;2023-04-03T05:28:13;2.70;56.00
74364;DHT22;62797;49.740;10.154;2023-04-03T05:30:39;2.80;55.60
74364;DHT22;62797;49.740;10.154;2023-04-03T05:33:05;2.80;55.10
74364;DHT22;62797;49.740;10.154;2023-04-03T05:35:45;2.80;54.90
74364;DHT22;62797;49.740;10.154;2023-04-03T05:38:16;2.70;54.50
74364;DHT22;62797;49.740;10.154;2023-04-03T05:40:42;2.70;54.30
74364;DHT22;62797;49.740;10.154;2023-04-03T05:43:08;2.60;54.70
74364;DHT22;62797;49.740;10.154;2023-04-03T05:45:37;2.60;53.90
74364;DHT22;62797;49.740;10.154;2023-04-03T05:48:03;2.50;54.30
74364;DHT22;62797;49.740;10.154;2023-04-03T05:50:30;2.50;54.10
74364;DHT22;62797;49.740;10.154;2023-04-03T05:52:57;2.40;54.20
74364;DHT22;62797;49.740;10.154;2023-04-03T05:55:25;2.30;53.50
74364;DHT22;62797;49.740;10.154;2023-04-03T05:57:51;2.30;53.30
74364;DHT22;62797;49.740;10.154;2023-04-03T06:00:17;2.30;54.30
74364;DHT22;62797;49.740;10.154;2023-04-03T06:02:53;2.30;54.10
74364;DHT22;62797;49.740;10.154;2023-04-03T06:05:22;2.30;53.70
74364;DHT22;62797;49.740;10.154;2023-04-03T06:07:49;2.30;53.50
74364;DHT22;62797;49.740;10.154;2023-04-03T06:10:15;2.30;53.90
74364;DHT22;62797;49.740;10.154;2023-04-03T06:12:41;2.30;53.80
74364;DHT22;62797;49.740;10.154;2023-04-03T06:15:07;2.40;53.80
74364;DHT22;62797;49.740;10.154;2023-04-03T06:17:35;2.40;53.50
74364;DHT22;62797;49.740;10.154;2023-04-03T06:20:01;2.40;52.20
74364;DHT22;62797;49.740;10.154;2023-04-03T06:22:27;2.40;52.70
74364;DHT22;62797;49.740;10.154;2023-04-03T06:24:55;2.40;52.90
74364;DHT22;62797;49.740;10.154;2023-04-03T06:27:21;2.50;53.20
74364;DHT22;62797;49.740;10.154;2023-04-03T06:29:47;2.60;52.30
74364;DHT22;62797;49.740;10.154;2023-04-03T06:32:14;2.70;52.60
74364;DHT22;62797;49.740;10.154;2023-04-03T06:34:40;2.80;51.50
74364;DHT22;62797;49.740;10.154;2023-04-03T06:37:20;2.90;51.70
74364;DHT22;62797;49.740;10.154;2023-04-03T06:39:46;3.00;49.50
74364;DHT22;62797;49.740;10.154;2023-04-03T06:42:13;3.00;49.80
74364;DHT22;62797;49.740;10.154;2023-04-03T06:44:47;3.10;49.00
74364;DHT22;62797;49.740;10.154;2023-04-03T06:47:14;3.20;47.90
74364;DHT22;62797;49.740;10.154;2023-04-03T06:49:40;3.30;48.20
74364;DHT22;62797;49.740;10.154;2023-04-03T06:52:07;3.40;46.40
74364;DHT22;62797;49.740;10.154;2023-04-03T06:54:33;3.50;47.00
74364;DHT22;62797;49.740;10.154;2023-04-03T06:56:58;3.60;45.30
74364;DHT22;62797;49.740;10.154;2023-04-03T06:59:24;3.60;44.90
74364;DHT22;62797;49.740;10.154;2023-04-03T07:01:50;3.60;44.00
74364;DHT22;62797;49.740;10.154;2023-04-03T07:04:16;3.60;43.10
74364;DHT22;62797;49.740;10.154;2023-04-03T07:06:42;3.60;44.10
74364;DHT22;62797;49.740;10.154;2023-04-03T07:09:08;3.50;44.10
74364;DHT22;62797;49.740;10.154;2023-04-03T07:11:34;3.60;44.60
74364;DHT22;62797;49.740;10.154;2023-04-03T07:14:00;3.70;43.00
74364;DHT22;62797;49.740;10.154;2023-04-03T07:16:25;3.70;43.40
74364;DHT22;62797;49.740;10.154;2023-04-03T07:18:51;3.80;43.10
74364;DHT22;62797;49.740;10.154;2023-04-03T07:21:17;4.00;44.10
74364;DHT22;62797;49.740;10.154;2023-04-03T07:23:43;4.20;43.80
74364;DHT22;62797;49.740;10.154;2023-04-03T07:26:08;4.30;42.20
74364;DHT22;62797;49.740;10.154;2023-04-03T07:28:34;4.30;41.10
74364;DHT22;62797;49.740;10.154;2023-04-03T07:31:04;4.30;41.50
74364;DHT22;62797;49.740;10.154;2023-04-03T07:33:32;4.40;40.70
74364;DHT22;62797;49.740;10.154;2023-04-03T07:36:00;4.40;40.60
74364;DHT22;62797;49.740;10.154;2023-04-03T07:38:26;4.40;39.80
74364;DHT22;62797;49.740;10.154;2023-04-03T07:40:51;4.40;39.90
74364;DHT22;62797;49.740;10.154;2023-04-03T07:43:19;4.30;39.90
74364;DHT22;62797;49.740;10.154;2023-04-03T07:45:46;4.20;39.90
74364;DHT22;62797;49.740;10.154;2023-04-03T07:48:15;4.20;40.60
74364;DHT22;62797;49.740;10.154;2023-04-03T07:50:41;4.10;40.00
74364;DHT22;62797;49.740;10.154;2023-04-03T07:53:07;4.20;40.60
74364;DHT22;62797;49.740;10.154;2023-04-03T07:55:33;4.10;40.40
74364;DHT22;62797;49.740;10.154;2023-04-03T07:57:59;4.10;41.30
74364;DHT22;62797;49.740;10.154;2023-04-03T08:00:25;4.20;40.70
74364;DHT22;62797;49.740;10.154;2023-04-03T08:02:51;4.20;40.50
74364;DHT22;62797;49.740;10.154;2023-04-03T08:05:21;4.30;39.40
74364;DHT22;62797;49.740;10.154;2023-04-03T08:07:47;4.40;41.00
74364;DHT22;62797;49.740;10.154;2023-04-03T08:10:14;4.50;40.00
74364;DHT22;62797;49.740;10.154;2023-04-03T08:12:40;4.60;39.50
74364;DHT22;62797;49.740;10.154;2023-04-03T08:15:06;4.60;38.30
74364;DHT22;62797;49.740;10.154;2023-04-03T08:17:33;4.60;39.10
74364;DHT22;62797;49.740;10.154;2023-04-03T08:20:00;4.60;38.10
74364;DHT22;62797;49.740;10.154;2023-04-03T08:22:26;4.70;38.10
74364;DHT22;62797;49.740;10.154;2023-04-03T08:24:51;4.80;37.90
74364;DHT22;62797;49.740;10.154;2023-04-03T08:27:17;4.70;37.50
74364;DHT22;62797;49.740;10.154;2023-04-03T08:29:43;4.80;36.80
74364;DHT22;62797;49.740;10.154;2023-04-03T08:32:09;4.90;37.20
74364;DHT22;62797;49.740;10.154;2023-04-03T08:34:34;4.90;36.30
74364;DHT22;62797;49.740;10.154;2023-04-03T08:37:02;5.00;36.60
74364;DHT22;62797;49.740;10.154;2023-04-03T08:39:28;5.00;36.20
74364;DHT22;62797;49.740;10.154;2023-04-03T08:41:57;5.20;35.50
74364;DHT22;62797;49.740;10.154;2023-04-03T08:49:59;5.00;34.40
74364;DHT22;62797;49.740;10.154;2023-04-03T08:55:33;5.20;34.40
74364;DHT22;62797;49.740;10.154;2023-04-03T08:58:12;5.30;35.20
74364;DHT22;62797;49.740;10.154;2023-04-03T09:01:12;5.40;34.50
74364;DHT22;62797;49.740;10.154;2023-04-03T09:03:41;5.50;34.30
74364;DHT22;62797;49.740;10.154;2023-04-03T09:08:45;5.40;33.90
74364;DHT22;62797;49.740;10.154;2023-04-03T09:11:25;5.50;33.50
74364;DHT22;62797;49.740;10.154;2023-04-03T09:14:13;5.50;33.40
74364;DHT22;62797;49.740;10.154;2023-04-03T09:19:41;5.70;32.10
74364;DHT22;62797;49.740;10.154;2023-04-03T09:22:17;5.70;31.40
74364;DHT22;62797;49.740;10.154;2023-04-03T09:24:55;5.70;32.20
74364;DHT22;62797;49.740;10.154;2023-04-03T09:27:22;5.80;32.70
74364;DHT22;62797;49.740;10.154;2023-04-03T09:29:53;5.90;32.30
74364;DHT22;62797;49.740;10.154;2023-04-03T09:32:25;5.80;32.00
74364;DHT22;62797;49.740;10.154;2023-04-03T09:34:54;5.90;31.20
74364;DHT22;62797;49.740;10.154;2023-04-03T09:37:41;5.90;29.20
74364;DHT22;62797;49.740;10.154;2023-04-03T09:40:33;6.00;29.70
74364;DHT22;62797;49.740;10.154;2023-04-03T09:43:30;6.20;29.50
74364;DHT22;62797;49.740;10.154;2023-04-03T09:46:33;6.10;28.50
74364;DHT22;62797;49.740;10.154;2023-04-03T09:49:02;6.20;27.90
74364;DHT22;62797;49.740;10.154;2023-04-03T09:51:29;6.30;27.80
74364;DHT22;62797;49.740;10.154;2023-04-03T09:53:56;6.40;27.50
74364;DHT22;62797;49.740;10.154;2023-04-03T09:56:28;6.40;25.90
74364;DHT22;62797;49.740;10.154;2023-04-03T10:04:10;6.30;25.90
74364;DHT22;62797;49.740;10.154;2023-04-03T10:06:40;6.20;26.50
74364;DHT22;62797;49.740;10.154;2023-04-03T10:09:29;6.30;25.30
74364;DHT22;62797;49.740;10.154;2023-04-03T10:12:11;6.50;26.40
74364;DHT22;62797;49.740;10.154;2023-04-03T10:14:40;6.60;25.10
74364;DHT22;62797;49.740;10.154;2023-04-03T10:17:36;6.60;24.50
74364;DHT22;62797;49.740;10.154;2023-04-03T10:20:21;6.50;24.90
74364;DHT22;62797;49.740;10.154;2023-04-03T10:23:15;6.60;24.90
74364;DHT22;62797;49.740;10.154;2023-04-03T10:34:06;7.40;24.70
74364;DHT22;62797;49.740;10.154;2023-04-03T10:36:44;7.70;23.80
74364;DHT22;62797;49.740;10.154;2023-04-03T10:42:28;8.60;23.00
74364;DHT22;62797;49.740;10.154;2023-04-03T10:50:42;9.20;16.90
74364;DHT22;62797;49.740;10.154;2023-04-03T10:55:52;9.20;16.70
74364;DHT22;62797;49.740;10.154;2023-04-03T10:58:26;9.40;15.80
74364;DHT22;62797;49.740;10.154;2023-04-03T11:00:58;9.60;16.20
74364;DHT22;62797;49.740;10.154;2023-04-03T11:03:44;9.60;15.20
74364;DHT22;62797;49.740;10.154;2023-04-03T11:06:13;9.70;16.00
74364;DHT22;62797;49.740;10.154;2023-04-03T11:11:39;10.60;15.60
74364;DHT22;62797;49.740;10.154;2023-04-03T11:14:14;11.10;14.30
74364;DHT22;62797;49.740;10.154;2023-04-03T11:16:46;11.40;11.40
74364;DHT22;62797;49.740;10.154;2023-04-03T11:19:18;11.90;13.20
74364;DHT22;62797;49.740;10.154;2023-04-03T11:22:21;12.20;12.20
74364;DHT22;62797;49.740;10.154;2023-04-03T11:27:24;11.10;14.30
74364;DHT22;62797;49.740;10.154;2023-04-03T11:29:51;10.90;13.40
74364;DHT22;62797;49.740;10.154;2023-04-03T11:35:09;11.00;14.00
74364;DHT22;62797;49.740;10.154;2023-04-03T11:37:43;11.50;13.70
74364;DHT22;62797;49.740;10.154;2023-04-03T11:42:49;11.50;13.10
74364;DHT22;62797;49.740;10.154;2023-04-03T11:47:56;11.50;10.90
74364;DHT22;62797;49.740;10.154;2023-04-03T11:58:17;13.20;9.60
74364;DHT22;62797;49.740;10.154;2023-04-03T12:00:50;13.00;9.10
74364;DHT22;62797;49.740;10.154;2023-04-03T12:16:42;13.50;8.90
74364;DHT22;62797;49.740;10.154;2023-04-03T12:32:17;14.20;7.00
74364;DHT22;62797;49.740;10.154;2023-04-03T12:34:49;14.10;9.00
74364;DHT22;62797;49.740;10.154;2023-04-03T12:48:48;13.00;7.80
74364;DHT22;62797;49.740;10.154;2023-04-03T12:53:47;13.40;8.70
74364;DHT22;62797;49.740;10.154;2023-04-03T12:56:29;13.30;10.40
74364;DHT22;62797;49.740;10.154;2023-04-03T13:01:41;14.00;9.90
74364;DHT22;62797;49.740;10.154;2023-04-03T13:04:10;14.00;9.10
74364;DHT22;62797;49.740;10.154;2023-04-03T13:06:43;13.80;6.70
74364;DHT22;62797;49.740;10.154;2023-04-03T13:09:30;13.30;8.40
74364;DHT22;62797;49.740;10.154;2023-04-03T13:12:14;12.70;8.60
74364;DHT22;62797;49.740;10.154;2023-04-03T13:14:40;12.80;9.60
74364;DHT22;62797;49.740;10.154;2023-04-03T13:17:10;12.70;7.20
74364;DHT22;62797;49.740;10.154;2023-04-03T13:19:38;12.60;9.80
74364;DHT22;62797;49.740;10.154;2023-04-03T13:22:28;13.40;9.00
74364;DHT22;62797;49.740;10.154;2023-04-03T13:24:58;14.00;8.20
74364;DHT22;62797;49.740;10.154;2023-04-03T13:27:25;14.40;7.10
74364;DHT22;62797;49.740;10.154;2023-04-03T13:29:53;14.60;9.40
74364;DHT22;62797;49.740;10.154;2023-04-03T13:32:23;15.00;5.80
74364;DHT22;62797;49.740;10.154;2023-04-03T13:34:50;14.80;6.10
74364;DHT22;62797;49.740;10.154;2023-04-03T13:37:34;14.70;4.70
74364;DHT22;62797;49.740;10.154;2023-04-03T13:40:11;15.10;9.40
74364;DHT22;62797;49.740;10.154;2023-04-03T13:42:41;16.10;5.30
74364;DHT22;62797;49.740;10.154;2023-04-03T13:45:21;16.20;6.20
74364;DHT22;62797;49.740;10.154;2023-04-03T13:47:50;16.30;7.50
74364;DHT22;62797;49.740;10.154;2023-04-03T13:50:20;16.20;4.60
74364;DHT22;62797;49.740;10.154;2023-04-03T13:55:21;16.20;3.10
74364;DHT22;62797;49.740;10.154;2023-04-03T13:57:54;16.40;4.70
74364;DHT22;62797;49.740;10.154;2023-04-03T14:00:51;16.20;7.20
74364;DHT22;62797;49.740;10.154;2023-04-03T14:03:29;16.40;5.40
74364;DHT22;62797;49.740;10.154;2023-04-03T14:05:55;16.60;2.60
74364;DHT22;62797;49.740;10.154;2023-04-03T14:08:23;16.60;5.70
74364;DHT22;62797;49.740;10.154;2023-04-03T14:10:50;16.90;3.80
74364;DHT22;62797;49.740;10.154;2023-04-03T14:13:18;16.80;3.10
74364;DHT22;62797;49.740;10.154;2023-04-03T14:15:46;16.80;3.60
74364;DHT22;62797;49.740;10.154;2023-04-03T14:18:16;16.40;6.90
74364;DHT22;62797;49.740;10.154;2023-04-03T14:20:42;16.80;4.20
74364;DHT22;62797;49.740;10.154;2023-04-03T14:23:08;16.80;4.80
74364;DHT22;62797;49.740;10.154;2023-04-03T14:25:35;17.00;2.00
74364;DHT22;62797;49.740;10.154;2023-04-03T14:28:01;16.80;3.50
74364;DHT22;62797;49.740;10.154;2023-04-03T14:30:32;16.60;2.80
74364;DHT22;62797;49.740;10.154;2023-04-03T14:32:59;16.40;4.60
74364;DHT22;62797;49.740;10.154;2023-04-03T14:35:26;16.50;2.90
74364;DHT22;62797;49.740;10.154;2023-04-03T14:37:52;16.60;3.50
74364;DHT22;62797;49.740;10.154;2023-04-03T14:40:23;16.60;4.40
74364;DHT22;62797;49.740;10.154;2023-04-03T14:42:50;16.30;2.30
74364;DHT22;62797;49.740;10.154;2023-04-03T14:45:16;16.00;3.20
74364;DHT22;62797;49.740;10.154;2023-04-03T14:47:51;16.40;2.70
74364;DHT22;62797;49.740;10.154;2023-04-03T14:50:26;16.50;2.90
74364;DHT22;62797;49.740;10.154;2023-04-03T14:52:55;17.20;2.50
74364;DHT22;62797;49.740;10.154;2023-04-03T14:55:23;17.20;3.10
74364;DHT22;62797;49.740;10.154;2023-04-03T14:57:49;17.20;2.40
74364;DHT22;62797;49.740;10.154;2023-04-03T15:00:19;17.30;1.30
74364;DHT22;62797;49.740;10.154;2023-04-03T15:02:46;17.20;1.50
74364;DHT22;62797;49.740;10.154;2023-04-03T15:05:14;17.10;2.30
74364;DHT22;62797;49.740;10.154;2023-04-03T15:07:58;16.90;1.00
74364;DHT22;62797;49.740;10.154;2023-04-03T15:10:30;16.90;1.60
74364;DHT22;62797;49.740;10.154;2023-04-03T15:12:56;16.90;1.90
74364;DHT22;62797;49.740;10.154;2023-04-03T15:15:23;16.70;1.00
74364;DHT22;62797;49.740;10.154;2023-04-03T15:17:54;16.50;5.00
74364;DHT22;62797;49.740;10.154;2023-04-03T15:20:23;17.60;2.20
74364;DHT22;62797;49.740;10.154;2023-04-03T15:22:49;17.90;1.10
74364;DHT22;62797;49.740;10.154;2023-04-03T15:25:15;17.60;1.00
74364;DHT22;62797;49.740;10.154;2023-04-03T15:27:42;16.80;1.00
74364;DHT22;62797;49.740;10.154;2023-04-03T15:30:13;16.20;1.40
74364;DHT22;62797;49.740;10.154;2023-04-03T15:32:39;15.90;2.30
74364;DHT22;62797;49.740;10.154;2023-04-03T15:35:05;16.40;3.10
74364;DHT22;62797;49.740;10.154;2023-04-03T15:37:30;16.80;1.00
74364;DHT22;62797;49.740;10.154;2023-04-03T15:39:56;17.40;2.10
74364;DHT22;62797;49.740;10.154;2023-04-03T15:42:22;17.70;3.30
74364;DHT22;62797;49.740;10.154;2023-04-03T15:44:47;17.90;1.00
74364;DHT22;62797;49.740;10.154;2023-04-03T15:47:13;18.00;1.30
74364;DHT22;62797;49.740;10.154;2023-04-03T15:49:39;17.60;1.00
74364;DHT22;62797;49.740;10.154;2023-04-03T15:52:05;17.50;1.00
74364;DHT22;62797;49.740;10.154;2023-04-03T15:54:30;17.30;1.00
74364;DHT22;62797;49.740;10.154;2023-04-03T15:56:56;17.30;1.60
74364;DHT22;62797;49.740;10.154;2023-04-03T15:59:22;17.30;2.20
74364;DHT22;62797;49.740;10.154;2023-04-03T16:01:49;17.10;1.00
74364;DHT22;62797;49.740;10.154;2023-04-03T16:04:16;17.00;1.40
74364;DHT22;62797;49.740;10.154;2023-04-03T16:06:43;17.20;1.00
74364;DHT22;62797;49.740;10.154;2023-04-03T16:09:09;17.60;2.00
74364;DHT22;62797;49.740;10.154;2023-04-03T16:11:35;17.90;2.50
74364;DHT22;62797;49.740;10.154;2023-04-03T16:14:02;18.00;1.00
74364;DHT22;62797;49.740;10.154;2023-04-03T16:16:28;17.70;1.00
74364;DHT22;62797;49.740;10.154;2023-04-03T16:18:55;17.10;1.30
74364;DHT22;62797;49.740;10.154;2023-04-03T16:21:22;17.30;1.80
74364;DHT22;62797;49.740;10.154;2023-04-03T16:23:47;17.30;1.00
74364;DHT22;62797;49.740;10.154;2023-04-03T16:26:14;17.40;1.10
74364;DHT22;62797;49.740;10.154;2023-04-03T16:28:39;17.30;1.00
74364;DHT22;62797;49.740;10.154;2023-04-03T16:31:06;17.40;1.00
74364;DHT22;62797;49.740;10.154;2023-04-03T16:33:32;17.40;1.00
74364;DHT22;62797;49.740;10.154;2023-04-03T16:35:58;17.10;1.00
74364;DHT22;62797;49.740;10.154;2023-04-03T16:38:23;17.00;1.00
74364;DHT22;62797;49.740;10.154;2023-04-03T16:40:52;16.40;2.00
74364;DHT22;62797;49.740;10.154;2023-04-03T16:43:22;16.20;1.40
74364;DHT22;62797;49.740;10.154;2023-04-03T16:45:47;15.70;1.90
74364;DHT22;62797;49.740;10.154;2023-04-03T16:48:13;14.80;2.60
74364;DHT22;62797;49.740;10.154;2023-04-03T16:50:39;13.90;4.10
74364;DHT22;62797;49.740;10.154;2023-04-03T16:53:05;13.20;4.60
74364;DHT22;62797;49.740;10.154;2023-04-03T16:55:33;13.00;6.10
74364;DHT22;62797;49.740;10.154;2023-04-03T16:57:59;13.00;5.80
74364;DHT22;62797;49.740;10.154;2023-04-03T17:00:24;12.70;6.30
74364;DHT22;62797;49.740;10.154;2023-04-03T17:02:50;12.30;5.80
74364;DHT22;62797;49.740;10.154;2023-04-03T17:05:16;12.20;5.80
74364;DHT22;62797;49.740;10.154;2023-04-03T17:07:41;12.20;6.80
74364;DHT22;62797;49.740;10.154;2023-04-03T17:10:07;12.00;6.70
74364;DHT22;62797;49.740;10.154;2023-04-03T17:12:33;11.80;6.80
74364;DHT22;62797;49.740;10.154;2023-04-03T17:14:58;11.60;6.80
74364;DHT22;62797;49.740;10.154;2023-04-03T17:17:25;11.20;7.40
74364;DHT22;62797;49.740;10.154;2023-04-03T17:19:51;10.70;8.10
74364;DHT22;62797;49.740;10.154;2023-04-03T17:22:19;10.50;7.40
74364;DHT22;62797;49.740;10.154;2023-04-03T17:24:45;10.10;7.70
74364;DHT22;62797;49.740;10.154;2023-04-03T17:27:11;9.50;8.00
74364;DHT22;62797;49.740;10.154;2023-04-03T17:29:36;9.00;9.90
74364;DHT22;62797;49.740;10.154;2023-04-03T17:32:02;8.70;10.30
74364;DHT22;62797;49.740;10.154;2023-04-03T17:34:28;8.40;11.10
74364;DHT22;62797;49.740;10.154;2023-04-03T17:36:54;8.20;11.20